createdAt,value
2022-09-27T00:00:07.725Z,53.70
2022-09-27T00:02:34.515Z,53.40
2022-09-27T00:05:01.255Z,53.10
2022-09-27T00:07:27.927Z,52.80
2022-09-27T00:09:54.600Z,52.50
2022-09-27T00:12:21.240Z,52.50
2022-09-27T00:14:47.906Z,52.40
2022-09-27T00:17:14.586Z,52.50
2022-09-27T00:19:41.262Z,52.50
2022-09-27T00:22:07.935Z,52.60
2022-09-27T00:24:36.120Z,52.70
2022-09-27T00:27:02.773Z,52.80
2022-09-27T00:29:29.600Z,52.80
2022-09-27T00:31:56.951Z,52.90
2022-09-27T00:34:24.630Z,53.00
2022-09-27T00:36:51.481Z,53.00
2022-09-27T00:39:18.256Z,53.00
2022-09-27T00:41:45.388Z,53.00
2022-09-27T00:44:28.540Z,53.10
2022-09-27T00:47:00.398Z,53.20
2022-09-27T00:49:28.711Z,53.30
2022-09-27T00:51:56.093Z,53.30
2022-09-27T00:54:22.791Z,53.30
2022-09-27T00:56:49.474Z,53.30
2022-09-27T00:59:17.704Z,53.30
2022-09-27T01:01:44.525Z,53.40
2022-09-27T01:04:12.118Z,53.40
2022-09-27T01:06:38.895Z,53.40
2022-09-27T01:09:06.171Z,53.40
2022-09-27T01:11:32.910Z,53.40
2022-09-27T01:14:05.745Z,53.50
2022-09-27T01:16:41.338Z,53.50
2022-09-27T01:19:27.009Z,53.50
2022-09-27T01:21:53.661Z,53.60
2022-09-27T01:24:39.107Z,53.80
2022-09-27T01:27:08.771Z,53.80
2022-09-27T01:29:36.039Z,53.80
2022-09-27T01:32:26.432Z,53.70
2022-09-27T01:34:53.309Z,53.80
2022-09-27T01:37:26.186Z,53.80
2022-09-27T01:39:56.391Z,53.90
2022-09-27T01:42:36.386Z,53.90
2022-09-27T01:45:06.209Z,53.80
2022-09-27T01:47:52.348Z,53.50
2022-09-27T01:50:20.512Z,53.20
2022-09-27T01:53:07.587Z,52.90
2022-09-27T01:55:35.373Z,52.70
2022-09-27T01:58:07.008Z,52.40
2022-09-27T02:00:37.053Z,52.50
2022-09-27T02:03:21.334Z,52.50
2022-09-27T02:05:50.386Z,52.50
2022-09-27T02:08:22.588Z,52.70
2022-09-27T02:10:49.345Z,52.80
2022-09-27T02:13:17.672Z,52.90
2022-09-27T02:15:47.486Z,53.00
2022-09-27T02:18:15.722Z,53.00
2022-09-27T02:20:45.118Z,53.10
2022-09-27T02:23:15.483Z,53.20
2022-09-27T02:25:43.914Z,53.30
2022-09-27T02:28:10.935Z,53.40
2022-09-27T02:30:37.694Z,53.40
2022-09-27T02:33:04.405Z,53.40
2022-09-27T02:35:34.533Z,53.50
2022-09-27T02:38:01.258Z,53.60
2022-09-27T02:40:31.590Z,53.60
2022-09-27T02:42:58.435Z,53.70
2022-09-27T02:45:25.133Z,53.70
2022-09-27T02:47:59.810Z,53.80
2022-09-27T02:50:39.981Z,53.90
2022-09-27T02:53:26.895Z,53.90
2022-09-27T02:56:11.850Z,53.90
2022-09-27T02:58:45.533Z,53.90
2022-09-27T03:01:13.263Z,54.00
2022-09-27T03:03:45.713Z,54.00
2022-09-27T03:06:13.422Z,54.10
2022-09-27T03:08:40.092Z,54.10
2022-09-27T03:11:06.837Z,54.10
2022-09-27T03:13:49.845Z,54.10
2022-09-27T03:16:21.488Z,54.10
2022-09-27T03:18:48.171Z,54.10
2022-09-27T03:21:14.876Z,54.20
2022-09-27T03:23:41.519Z,54.10
2022-09-27T03:26:12.277Z,54.20
2022-09-27T03:28:39.739Z,54.20
2022-09-27T03:31:06.473Z,54.20
2022-09-27T03:33:33.659Z,54.30
2022-09-27T03:36:00.443Z,54.40
2022-09-27T03:38:27.154Z,54.40
2022-09-27T03:40:54.072Z,54.40
2022-09-27T03:43:20.760Z,54.40
2022-09-27T03:45:47.891Z,54.50
2022-09-27T03:48:14.645Z,54.40
2022-09-27T03:50:41.380Z,54.30
2022-09-27T03:53:08.057Z,54.30
2022-09-27T03:55:35.482Z,54.30
2022-09-27T03:58:02.178Z,54.20
2022-09-27T04:00:28.842Z,54.40
2022-09-27T04:02:55.594Z,54.10
2022-09-27T04:05:22.360Z,53.90
2022-09-27T04:07:49.600Z,53.60
2022-09-27T04:10:16.316Z,53.40
2022-09-27T04:12:43.476Z,53.10
2022-09-27T04:15:10.469Z,52.80
2022-09-27T04:17:37.128Z,52.60
2022-09-27T04:20:04.236Z,52.50
2022-09-27T04:22:30.975Z,52.50
2022-09-27T04:24:57.648Z,52.50
2022-09-27T04:27:24.340Z,52.70
2022-09-27T04:29:50.976Z,52.70
2022-09-27T04:32:17.706Z,52.80
2022-09-27T04:35:03.220Z,53.50
2022-09-27T04:37:29.966Z,53.00
2022-09-27T04:39:57.197Z,53.10
2022-09-27T04:42:23.863Z,53.10
2022-09-27T04:44:51.396Z,53.20
2022-09-27T04:47:19.154Z,53.20
2022-09-27T04:49:45.853Z,53.30
2022-09-27T04:52:15.507Z,53.40
2022-09-27T04:54:42.467Z,53.40
2022-09-27T04:57:09.518Z,53.50
2022-09-27T04:59:36.200Z,53.60
2022-09-27T05:02:03.170Z,53.60
2022-09-27T05:04:30.011Z,53.70
2022-09-27T05:06:57.415Z,53.80
2022-09-27T05:09:24.182Z,53.80
2022-09-27T05:11:50.929Z,53.80
2022-09-27T05:14:17.687Z,53.80
2022-09-27T05:16:44.809Z,53.90
2022-09-27T05:19:11.582Z,53.90
2022-09-27T05:21:38.286Z,53.90
2022-09-27T05:24:05.960Z,53.80
2022-09-27T05:26:32.705Z,53.90
2022-09-27T05:28:59.432Z,53.90
2022-09-27T05:31:26.717Z,54.00
2022-09-27T05:33:54.018Z,54.00
2022-09-27T05:36:20.762Z,54.10
2022-09-27T05:38:47.661Z,54.10
2022-09-27T05:41:14.474Z,54.20
2022-09-27T05:43:41.607Z,54.20
2022-09-27T05:46:08.321Z,54.20
2022-09-27T05:48:35.074Z,54.20
2022-09-27T05:51:01.721Z,54.20
2022-09-27T05:53:32.490Z,54.40
2022-09-27T05:56:03.483Z,54.30
2022-09-27T05:58:30.323Z,54.20
2022-09-27T06:00:57.033Z,54.50
2022-09-27T06:03:23.682Z,54.40
2022-09-27T06:05:51.439Z,54.40
2022-09-27T06:08:20.318Z,54.40
2022-09-27T06:10:47.510Z,54.50
2022-09-27T06:13:15.299Z,54.50
2022-09-27T06:15:42.939Z,54.60
2022-09-27T06:18:10.377Z,54.50
2022-09-27T06:20:37.402Z,54.50
2022-09-27T06:23:11.373Z,54.20
2022-09-27T06:25:38.180Z,54.10
2022-09-27T06:28:05.048Z,53.70
2022-09-27T06:30:31.893Z,53.40
2022-09-27T06:32:58.964Z,53.10
2022-09-27T06:35:28.976Z,52.80
2022-09-27T06:37:55.839Z,53.40
2022-09-27T06:40:22.869Z,53.00
2022-09-27T06:42:50.413Z,53.10
2022-09-27T06:45:17.178Z,53.20
2022-09-27T06:47:43.862Z,53.20
2022-09-27T06:50:10.549Z,53.20
2022-09-27T06:52:37.252Z,53.30
2022-09-27T06:55:04.438Z,53.40
2022-09-27T06:57:49.788Z,53.40
2022-09-27T07:00:26.965Z,53.60
2022-09-27T07:02:54.006Z,53.70
2022-09-27T07:05:20.891Z,53.60
2022-09-27T07:07:51.349Z,53.70
2022-09-27T07:10:18.285Z,53.70
2022-09-27T07:12:48.821Z,54.30
2022-09-27T07:15:15.625Z,53.90
2022-09-27T07:17:42.711Z,53.90
2022-09-27T07:20:09.441Z,53.90
2022-09-27T07:22:39.944Z,53.90
2022-09-27T07:25:06.697Z,53.80
2022-09-27T07:27:38.197Z,53.90
2022-09-27T07:30:07.300Z,53.90
2022-09-27T07:32:35.686Z,53.90
2022-09-27T07:35:05.955Z,54.00
2022-09-27T07:37:33.046Z,54.00
2022-09-27T07:40:00.280Z,54.00
2022-09-27T07:42:28.810Z,54.00
2022-09-27T07:44:56.056Z,54.00
2022-09-27T07:47:24.748Z,54.00
2022-09-27T07:49:54.575Z,54.00
2022-09-27T07:52:21.387Z,54.00
2022-09-27T07:54:48.071Z,54.10
2022-09-27T07:57:15.028Z,54.00
2022-09-27T07:59:41.867Z,54.00
2022-09-27T08:02:15.377Z,54.00
2022-09-27T08:04:43.681Z,54.10
2022-09-27T08:07:14.224Z,54.00
2022-09-27T08:09:41.342Z,54.00
2022-09-27T08:12:08.441Z,54.10
2022-09-27T08:14:40.939Z,54.10
2022-09-27T08:17:13.170Z,54.10
2022-09-27T08:19:40.709Z,54.10
2022-09-27T08:22:07.798Z,54.10
2022-09-27T08:24:34.486Z,54.10
2022-09-27T08:27:02.131Z,54.10
2022-09-27T08:29:28.793Z,53.90
2022-09-27T08:31:55.778Z,53.70
2022-09-27T08:34:22.969Z,53.50
2022-09-27T08:36:49.705Z,53.20
2022-09-27T08:39:16.617Z,53.50
2022-09-27T08:41:43.647Z,52.70
2022-09-27T08:44:13.790Z,52.40
2022-09-27T08:47:00.033Z,52.40
2022-09-27T08:49:36.372Z,52.50
2022-09-27T08:52:03.656Z,52.50
2022-09-27T08:54:30.686Z,52.60
2022-09-27T08:57:04.293Z,52.70
2022-09-27T08:59:34.147Z,52.70
2022-09-27T09:02:00.823Z,52.80
2022-09-27T09:04:35.451Z,52.90
2022-09-27T09:07:02.156Z,52.90
2022-09-27T09:09:28.842Z,52.90
2022-09-27T09:12:33.192Z,52.90
2022-09-27T09:15:18.370Z,53.10
2022-09-27T09:17:45.088Z,53.10
2022-09-27T09:20:31.396Z,53.10
2022-09-27T09:22:58.310Z,53.20
2022-09-27T09:25:43.848Z,53.30
2022-09-27T09:28:10.517Z,53.20
2022-09-27T09:30:40.251Z,53.30
2022-09-27T09:33:20.022Z,53.30
2022-09-27T09:35:59.545Z,53.40
2022-09-27T09:38:29.223Z,53.50
2022-09-27T09:40:58.183Z,53.40
2022-09-27T09:43:26.520Z,53.50
2022-09-27T09:45:58.806Z,53.50
2022-09-27T09:48:30.300Z,53.50
2022-09-27T09:50:57.966Z,53.60
2022-09-27T09:53:40.037Z,53.50
2022-09-27T09:56:08.105Z,53.60
2022-09-27T09:58:44.994Z,53.60
2022-09-27T10:01:17.899Z,54.20
2022-09-27T10:03:44.766Z,53.50
2022-09-27T10:06:11.649Z,53.60
2022-09-27T10:08:38.375Z,53.60
2022-09-27T10:11:05.069Z,53.70
2022-09-27T10:13:32.338Z,53.70
2022-09-27T10:16:12.704Z,53.70
2022-09-27T10:18:45.084Z,53.70
2022-09-27T10:21:22.108Z,53.70
2022-09-27T10:24:01.570Z,53.60
2022-09-27T10:26:28.370Z,53.40
2022-09-27T10:28:55.055Z,53.30
2022-09-27T10:31:21.840Z,53.00
2022-09-27T10:33:51.674Z,52.90
2022-09-27T10:36:23.054Z,52.60
2022-09-27T10:38:51.887Z,52.40
2022-09-27T10:41:31.805Z,52.50
2022-09-27T10:43:58.577Z,52.40
2022-09-27T10:46:28.950Z,52.40
2022-09-27T10:49:08.369Z,52.50
2022-09-27T10:51:35.133Z,52.60
2022-09-27T10:54:01.883Z,52.60
2022-09-27T10:56:29.310Z,52.80
2022-09-27T10:58:56.220Z,52.80
2022-09-27T11:01:22.961Z,52.90
2022-09-27T11:03:50.959Z,53.00
2022-09-27T11:06:23.784Z,53.00
2022-09-27T11:08:51.282Z,53.10
2022-09-27T11:11:20.048Z,53.10
2022-09-27T11:14:04.534Z,52.80
2022-09-27T11:16:32.890Z,52.80
2022-09-27T11:19:18.405Z,53.10
2022-09-27T11:21:48.237Z,53.20
2022-09-27T11:24:21.052Z,53.20
2022-09-27T11:26:48.901Z,53.30
2022-09-27T11:29:35.374Z,52.90
2022-09-27T11:32:21.059Z,53.10
2022-09-27T11:34:58.230Z,53.40
2022-09-27T11:37:24.933Z,53.40
2022-09-27T11:40:15.203Z,53.40
2022-09-27T11:43:00.731Z,53.40
2022-09-27T11:45:56.311Z,53.50
2022-09-27T11:48:27.365Z,53.70
2022-09-27T11:51:03.296Z,53.50
2022-09-27T11:53:39.294Z,53.40
2022-09-27T11:56:13.901Z,53.40
2022-09-27T11:59:00.511Z,53.00
2022-09-27T12:01:27.245Z,52.90
2022-09-27T12:04:17.163Z,52.50
2022-09-27T12:07:02.896Z,52.30
2022-09-27T12:09:34.576Z,52.50
2022-09-27T12:12:03.889Z,52.60
2022-09-27T12:14:36.353Z,52.50
2022-09-27T12:17:03.920Z,52.50
2022-09-27T12:19:32.495Z,52.60
2022-09-27T12:22:01.104Z,52.80
2022-09-27T12:24:27.779Z,52.80
2022-09-27T12:26:55.245Z,52.80
2022-09-27T12:29:31.646Z,52.90
2022-09-27T12:32:04.634Z,52.90
2022-09-27T12:34:38.963Z,53.00
2022-09-27T12:37:11.299Z,52.70
2022-09-27T12:39:42.840Z,53.00
2022-09-27T12:42:17.888Z,53.00
2022-09-27T12:44:47.559Z,53.10
2022-09-27T12:47:24.244Z,53.30
2022-09-27T12:50:01.651Z,53.90
2022-09-27T12:52:30.965Z,53.30
2022-09-27T12:55:06.855Z,53.30
2022-09-27T12:57:59.842Z,53.40
2022-09-27T13:00:26.706Z,53.30
2022-09-27T13:03:16.174Z,53.40
2022-09-27T13:06:02.324Z,53.40
2022-09-27T13:08:49.697Z,53.40
2022-09-27T13:11:25.574Z,52.50
2022-09-27T13:13:55.551Z,53.40
2022-09-27T13:16:22.305Z,53.00
2022-09-27T13:18:50.215Z,53.00
2022-09-27T13:21:35.855Z,53.10
2022-09-27T13:24:03.666Z,52.80
2022-09-27T13:26:33.453Z,52.60
2022-09-27T13:29:02.173Z,52.00
2022-09-27T13:31:47.683Z,52.00
2022-09-27T13:34:34.742Z,52.00
2022-09-27T13:37:21.530Z,52.20
2022-09-27T13:39:48.240Z,52.30
2022-09-27T13:42:32.276Z,52.40
2022-09-27T13:45:14.440Z,52.50
2022-09-27T13:47:45.017Z,52.60
2022-09-27T13:50:29.303Z,52.60
2022-09-27T13:53:07.070Z,52.80
2022-09-27T13:55:52.152Z,52.80
2022-09-27T13:58:18.817Z,52.90
2022-09-27T14:00:49.399Z,52.70
2022-09-27T14:03:17.359Z,52.80
2022-09-27T14:06:05.426Z,53.00
2022-09-27T14:08:35.754Z,53.10
2022-09-27T14:11:03.020Z,53.10
2022-09-27T14:13:31.626Z,53.20
2022-09-27T14:15:59.489Z,53.30
2022-09-27T14:18:26.248Z,53.30
2022-09-27T14:20:52.964Z,53.30
2022-09-27T14:23:23.270Z,53.30
2022-09-27T14:25:50.677Z,53.40
2022-09-27T14:28:24.374Z,53.40
2022-09-27T14:31:06.435Z,53.50
2022-09-27T14:33:34.407Z,53.60
2022-09-27T14:36:23.728Z,53.60
2022-09-27T14:38:51.970Z,53.70
2022-09-27T14:41:18.716Z,53.60
2022-09-27T14:43:46.124Z,53.50
2022-09-27T14:46:33.226Z,53.50
2022-09-27T14:49:08.694Z,53.10
2022-09-27T14:51:35.741Z,52.60
2022-09-27T14:54:05.586Z,52.30
2022-09-27T14:56:33.969Z,52.20
2022-09-27T14:59:27.112Z,52.40
2022-09-27T15:01:53.764Z,52.40
2022-09-27T15:04:20.751Z,52.60
2022-09-27T15:06:49.562Z,52.70
2022-09-27T15:09:16.553Z,52.90
2022-09-27T15:11:44.526Z,52.90
2022-09-27T15:14:12.245Z,53.60
2022-09-27T15:16:38.977Z,53.10
2022-09-27T15:19:35.112Z,53.10
2022-09-27T15:22:20.778Z,53.20
2022-09-27T15:24:47.460Z,53.40
2022-09-27T15:27:14.735Z,53.40
2022-09-27T15:29:41.444Z,53.40
2022-09-27T15:32:08.152Z,53.40
2022-09-27T15:34:34.841Z,53.60
2022-09-27T15:37:03.613Z,53.70
2022-09-27T15:39:34.073Z,53.70
2022-09-27T15:42:14.744Z,53.80
2022-09-27T15:44:45.273Z,53.80
2022-09-27T15:47:32.027Z,53.90
2022-09-27T15:49:59.116Z,53.90
2022-09-27T15:52:58.180Z,53.90
2022-09-27T15:55:25.772Z,53.90
2022-09-27T15:58:05.765Z,54.00
2022-09-27T16:00:32.659Z,53.90
2022-09-27T16:02:59.425Z,53.90
2022-09-27T16:05:27.308Z,53.90
2022-09-27T16:07:54.068Z,53.80
2022-09-27T16:10:21.752Z,53.70
2022-09-27T16:12:48.502Z,53.50
2022-09-27T16:15:15.286Z,53.40
2022-09-27T16:17:44.843Z,52.90
2022-09-27T16:20:21.795Z,52.70
2022-09-27T16:22:48.825Z,53.30
2022-09-27T16:25:15.577Z,52.70
2022-09-27T16:27:42.242Z,52.70
2022-09-27T16:30:09.258Z,52.80
2022-09-27T16:32:40.197Z,52.90
2022-09-27T16:35:06.955Z,52.80
2022-09-27T16:37:34.129Z,52.90
2022-09-27T16:40:01.401Z,52.80
2022-09-27T16:42:28.098Z,52.50
2022-09-27T16:44:55.057Z,52.90
2022-09-27T16:47:21.815Z,52.70
2022-09-27T16:50:07.363Z,53.10
2022-09-27T16:52:34.169Z,53.40
2022-09-27T16:55:00.965Z,54.10
2022-09-27T16:57:30.602Z,53.50
2022-09-27T16:59:57.419Z,53.50
2022-09-27T17:02:24.595Z,53.60
2022-09-27T17:04:51.581Z,53.70
2022-09-27T17:07:18.407Z,53.60
2022-09-27T17:09:45.282Z,53.70
2022-09-27T17:12:12.241Z,53.70
2022-09-27T17:14:38.932Z,53.70
2022-09-27T17:17:06.318Z,53.70
2022-09-27T17:19:33.802Z,53.70
2022-09-27T17:22:00.588Z,53.70
2022-09-27T17:24:27.348Z,53.80
2022-09-27T17:26:55.392Z,53.80
2022-09-27T17:29:22.066Z,53.90
2022-09-27T17:31:48.893Z,53.70
2022-09-27T17:34:15.761Z,53.60
2022-09-27T17:36:44.303Z,53.40
2022-09-27T17:39:11.630Z,53.30
2022-09-27T17:41:40.089Z,53.00
2022-09-27T17:44:07.355Z,52.60
2022-09-27T17:46:35.187Z,52.40
2022-09-27T17:49:20.832Z,52.50
2022-09-27T17:51:48.245Z,52.50
2022-09-27T17:54:15.100Z,52.50
2022-09-27T17:56:42.214Z,52.50
2022-09-27T17:59:09.576Z,52.60
2022-09-27T18:01:39.399Z,52.70
2022-09-27T18:04:06.937Z,52.70
2022-09-27T18:06:33.616Z,52.80
2022-09-27T18:09:02.203Z,52.80
2022-09-27T18:11:28.906Z,52.80
2022-09-27T18:13:56.046Z,52.90
2022-09-27T18:16:29.609Z,52.90
2022-09-27T18:18:56.409Z,52.90
2022-09-27T18:21:23.791Z,52.90
2022-09-27T18:23:53.475Z,53.00
2022-09-27T18:26:24.124Z,52.90
2022-09-27T18:28:54.773Z,53.00
2022-09-27T18:31:22.341Z,53.00
2022-09-27T18:33:49.450Z,53.10
2022-09-27T18:36:20.148Z,53.00
2022-09-27T18:38:47.489Z,53.10
2022-09-27T18:41:17.927Z,53.20
2022-09-27T18:43:44.980Z,53.10
2022-09-27T18:46:34.477Z,53.10
2022-09-27T18:48:59.280Z,53.10
2022-09-27T18:51:29.634Z,53.10
2022-09-27T18:53:57.131Z,53.20
2022-09-27T18:56:24.006Z,53.20
2022-09-27T18:58:51.864Z,53.30
2022-09-27T19:01:19.172Z,53.30
2022-09-27T19:03:46.084Z,53.30
2022-09-27T19:06:19.904Z,53.30
2022-09-27T19:08:46.655Z,53.20
2022-09-27T19:11:16.914Z,53.30
2022-09-27T19:13:51.192Z,53.20
2022-09-27T19:16:18.619Z,53.80
2022-09-27T19:18:45.312Z,53.00
2022-09-27T19:21:12.860Z,52.80
2022-09-27T19:23:39.536Z,52.50
2022-09-27T19:26:07.075Z,52.10
2022-09-27T19:28:34.470Z,52.00
2022-09-27T19:31:04.434Z,52.50
2022-09-27T19:33:34.438Z,52.00
2022-09-27T19:36:01.662Z,52.00
2022-09-27T19:38:31.962Z,52.00
2022-09-27T19:40:58.801Z,51.90
2022-09-27T19:43:25.804Z,51.80
2022-09-27T19:45:52.489Z,51.90
2022-09-27T19:48:19.177Z,52.00
2022-09-27T19:50:55.950Z,52.10
2022-09-27T19:53:22.909Z,52.20
2022-09-27T19:55:56.631Z,52.30
2022-09-27T19:58:23.407Z,52.30
2022-09-27T20:00:56.945Z,52.40
2022-09-27T20:03:23.894Z,52.30
2022-09-27T20:05:54.344Z,52.40
2022-09-27T20:08:21.017Z,52.40
2022-09-27T20:11:00.371Z,52.50
2022-09-27T20:13:30.795Z,52.50
2022-09-27T20:16:16.520Z,52.50
2022-09-27T20:18:43.989Z,52.60
2022-09-27T20:21:10.651Z,52.60
2022-09-27T20:23:37.351Z,52.70
2022-09-27T20:26:07.741Z,52.60
2022-09-27T20:28:43.931Z,52.70
2022-09-27T20:31:11.104Z,52.60
2022-09-27T20:33:44.165Z,52.60
2022-09-27T20:36:12.627Z,52.70
2022-09-27T20:38:43.401Z,52.70
2022-09-27T20:41:10.618Z,52.70
2022-09-27T20:43:37.697Z,52.70
2022-09-27T20:46:05.028Z,52.80
2022-09-27T20:48:31.767Z,52.80
2022-09-27T20:51:01.268Z,52.80
2022-09-27T20:53:31.024Z,52.70
2022-09-27T20:55:59.346Z,52.70
2022-09-27T20:58:26.011Z,52.80
2022-09-27T21:00:52.990Z,52.80
2022-09-27T21:03:21.848Z,52.80
2022-09-27T21:05:58.289Z,52.90
2022-09-27T21:08:25.005Z,52.80
2022-09-27T21:10:52.978Z,52.90
2022-09-27T21:13:19.742Z,52.80
2022-09-27T21:15:46.488Z,52.80
2022-09-27T21:18:13.165Z,52.90
2022-09-27T21:20:39.878Z,52.80
2022-09-27T21:23:06.555Z,52.80
2022-09-27T21:25:33.259Z,52.90
2022-09-27T21:28:00.020Z,52.80
2022-09-27T21:30:27.734Z,52.80
2022-09-27T21:32:55.076Z,52.90
2022-09-27T21:35:22.079Z,52.80
2022-09-27T21:37:48.902Z,52.60
2022-09-27T21:40:16.075Z,52.50
2022-09-27T21:42:42.875Z,52.20
2022-09-27T21:45:09.834Z,51.80
2022-09-27T21:47:36.502Z,51.70
2022-09-27T21:50:03.287Z,51.50
2022-09-27T21:52:29.986Z,51.50
2022-09-27T21:54:56.688Z,51.50
2022-09-27T21:57:23.366Z,51.50
2022-09-27T21:59:50.024Z,51.60
2022-09-27T22:02:18.506Z,51.70
2022-09-27T22:04:45.184Z,51.70
2022-09-27T22:07:11.861Z,51.70
2022-09-27T22:09:38.936Z,51.70
2022-09-27T22:12:06.324Z,51.60
2022-09-27T22:14:34.047Z,51.70
2022-09-27T22:17:00.736Z,51.80
2022-09-27T22:19:27.450Z,52.00
2022-09-27T22:21:54.095Z,52.00
2022-09-27T22:24:20.811Z,52.00
2022-09-27T22:26:48.620Z,52.00
2022-09-27T22:29:15.532Z,52.20
2022-09-27T22:31:42.371Z,52.20
2022-09-27T22:34:16.194Z,52.10
2022-09-27T22:36:42.948Z,52.20
2022-09-27T22:39:09.609Z,52.20
2022-09-27T22:41:36.330Z,52.20
2022-09-27T22:44:03.005Z,52.30
2022-09-27T22:46:29.746Z,52.40
2022-09-27T22:48:56.502Z,52.30
2022-09-27T22:51:23.176Z,52.30
2022-09-27T22:53:49.982Z,52.40
2022-09-27T22:56:17.717Z,52.40
2022-09-27T22:58:44.503Z,52.40
2022-09-27T23:01:13.039Z,52.50
2022-09-27T23:03:39.872Z,52.50
2022-09-27T23:06:07.541Z,52.40
2022-09-27T23:08:37.594Z,52.40
2022-09-27T23:11:05.367Z,52.50
2022-09-27T23:13:32.997Z,52.50
2022-09-27T23:16:00.450Z,52.50
2022-09-27T23:18:27.136Z,52.60
2022-09-27T23:20:53.794Z,52.50
2022-09-27T23:23:20.459Z,52.50
2022-09-27T23:25:47.890Z,52.50
2022-09-27T23:28:14.569Z,52.50
2022-09-27T23:30:41.245Z,52.50
2022-09-27T23:33:08.444Z,52.50
2022-09-27T23:35:35.124Z,52.50
2022-09-27T23:38:01.799Z,52.50
2022-09-27T23:40:28.553Z,52.50
2022-09-27T23:42:55.361Z,52.50
2022-09-27T23:45:22.059Z,52.50
2022-09-27T23:47:48.725Z,52.50
2022-09-27T23:50:15.432Z,52.50
2022-09-27T23:52:43.119Z,52.50
2022-09-27T23:55:09.869Z,52.50
2022-09-27T23:57:36.534Z,52.70
